Time;durP1;ratioP1;P1;durP2;ratioP2;P2;SDS_P1;SDS_P2;PMS_P1;PMS_P2;Temp;Humidity;BMP_temperature;BMP_pressure;BME280_temperature;BME280_humidity;BME280_pressure;Samples;Min_cycle;Max_cycle;Signal;HPM_P1;HPM_P2
2023/04/19 00:02:24;;;;;;;;;;;;;;;3.56;48.05;102649.50;10511161;28;20401;-79
2023/04/19 00:07:26;;;;;;;;;;;;;;;3.44;48.35;102656.41;10495459;28;19929;-79
2023/04/19 00:12:28;;;;;;;;;;;;;;;3.31;48.33;102648.91;10536424;28;19916;-80
2023/04/19 00:17:30;;;;;;;;;;;;;;;3.27;49.11;102656.56;10549276;28;19920;-81
2023/04/19 00:22:32;;;;;;;;;;;;;;;3.28;49.14;102660.13;10531048;28;20265;-80
2023/04/19 00:27:34;;;;;;;;;;;;;;;3.28;49.11;102660.13;10522648;28;19919;-79
2023/04/19 00:32:36;;;;;;;;;;;;;;;3.24;49.28;102665.06;10555115;28;19927;-81
2023/04/19 00:37:38;;;;;;;;;;;;;;;3.09;50.06;102668.75;10531632;28;19920;-82
2023/04/19 00:42:40;;;;;;;;;;;;;;;2.95;50.73;102671.25;10518819;28;19983;-79
2023/04/19 00:47:42;;;;;;;;;;;;;;;3.05;50.37;102670.16;10502031;28;19917;-79
2023/04/19 00:52:46;;;;;;;;;;;;;;;2.93;50.88;102676.00;10537258;28;19998;-81
2023/04/19 00:57:48;;;;;;;;;;;;;;;2.90;51.38;102664.69;10519218;28;19973;-80
2023/04/19 01:02:51;;;;;;;;;;;;;;;2.91;51.49;102666.34;10559982;28;20379;-81
2023/04/19 01:07:54;;;;;;;;;;;;;;;2.81;51.89;102663.06;10575419;28;19920;-79
2023/04/19 01:12:56;;;;;;;;;;;;;;;2.76;52.99;102660.88;10528910;28;19931;-79
2023/04/19 01:17:57;;;;;;;;;;;;;;;2.73;53.03;102678.34;10536425;28;19920;-80
2023/04/19 01:22:59;;;;;;;;;;;;;;;2.66;53.69;102666.53;10501933;28;19942;-82
2023/04/19 01:28:02;;;;;;;;;;;;;;;2.60;54.06;102669.97;10516061;28;19920;-81
2023/04/19 01:33:04;;;;;;;;;;;;;;;2.58;54.85;102688.25;10499289;28;20351;-82
2023/04/19 01:38:06;;;;;;;;;;;;;;;2.62;55.13;102677.94;10572240;28;19923;-79
2023/04/19 01:43:09;;;;;;;;;;;;;;;2.61;55.51;102681.66;10549101;28;19925;-81
2023/04/19 01:48:12;;;;;;;;;;;;;;;2.52;56.36;102671.88;10499483;28;19924;-81
2023/04/19 01:53:14;;;;;;;;;;;;;;;2.45;56.96;102676.34;10558191;28;19920;-79
2023/04/19 01:58:15;;;;;;;;;;;;;;;2.45;57.68;102682.59;10541111;28;19930;-81
2023/04/19 02:03:17;;;;;;;;;;;;;;;2.40;57.89;102677.69;10521321;28;20007;-79
2023/04/19 02:08:19;;;;;;;;;;;;;;;2.38;58.66;102678.88;10514500;28;19943;-81
2023/04/19 02:13:21;;;;;;;;;;;;;;;2.40;59.04;102668.72;10514956;28;19925;-79
2023/04/19 02:18:25;;;;;;;;;;;;;;;2.25;60.25;102682.16;10514525;28;19994;-78
2023/04/19 02:23:27;;;;;;;;;;;;;;;2.26;60.34;102666.78;10552289;28;19926;-81
2023/04/19 02:28:30;;;;;;;;;;;;;;;2.23;60.81;102672.53;10482554;28;19917;-80
2023/04/19 02:33:32;;;;;;;;;;;;;;;2.13;61.63;102671.91;10475539;28;19920;-78
2023/04/19 02:38:35;;;;;;;;;;;;;;;2.12;62.22;102665.66;10497317;28;20399;-79
2023/04/19 02:43:37;;;;;;;;;;;;;;;1.98;62.76;102669.94;10531784;28;19926;-82
2023/04/19 02:48:39;;;;;;;;;;;;;;;1.92;63.45;102659.81;10513338;28;19926;-79
2023/04/19 02:53:41;;;;;;;;;;;;;;;2.23;63.28;102656.28;10507500;28;19927;-81
2023/04/19 02:58:43;;;;;;;;;;;;;;;2.16;63.90;102656.16;10457566;28;19931;-79
2023/04/19 03:03:45;;;;;;;;;;;;;;;2.06;64.52;102658.19;10494604;28;19924;-78
2023/04/19 03:08:47;;;;;;;;;;;;;;;2.23;64.90;102661.69;10469313;28;20415;-80
2023/04/19 03:13:51;;;;;;;;;;;;;;;2.47;63.92;102668.88;10503264;28;19920;-81
2023/04/19 03:18:52;;;;;;;;;;;;;;;2.70;63.45;102654.31;10505055;28;19923;-80
2023/04/19 03:24:00;;;;;;;;;;;;;;;2.93;63.52;102672.44;10529489;28;19916;-80
2023/04/19 03:29:03;;;;;;;;;;;;;;;3.16;63.05;102662.44;10497251;28;19920;-80
2023/04/19 03:34:18;;;;;;;;;;;;;;;3.45;61.80;102658.09;10508093;28;19920;-80
2023/04/19 03:39:22;;;;;;;;;;;;;;;3.41;62.26;102662.22;10523775;28;19927;-79
2023/04/19 03:44:30;;;;;;;;;;;;;;;3.74;61.47;102655.41;10508820;28;20292;-79
2023/04/19 03:49:32;;;;;;;;;;;;;;;3.79;61.66;102655.69;10511114;28;19927;-79
2023/04/19 03:54:39;;;;;;;;;;;;;;;3.94;61.17;102656.53;10512291;28;20383;-81
2023/04/19 03:59:46;;;;;;;;;;;;;;;4.15;60.04;102671.22;10510551;28;20269;-80
2023/04/19 04:04:55;;;;;;;;;;;;;;;4.42;59.97;102656.94;10477684;28;19916;-78
2023/04/19 04:09:58;;;;;;;;;;;;;;;4.57;58.92;102654.19;10478504;28;19923;-79
2023/04/19 04:15:02;;;;;;;;;;;;;;;4.51;59.57;102655.81;10498177;28;19920;-80
2023/04/19 04:20:07;;;;;;;;;;;;;;;4.62;59.15;102659.91;10512540;28;20292;-81
2023/04/19 04:25:11;;;;;;;;;;;;;;;5.13;57.90;102655.19;10522899;28;19920;-80
2023/04/19 04:30:14;;;;;;;;;;;;;;;5.19;57.81;102658.16;10479118;28;19928;-82
2023/04/19 04:35:16;;;;;;;;;;;;;;;5.60;56.21;102658.28;10497918;28;20303;-77
2023/04/19 04:40:26;;;;;;;;;;;;;;;5.60;56.03;102667.28;10508446;28;19931;-82
2023/04/19 04:45:28;;;;;;;;;;;;;;;5.98;55.25;102669.66;10492202;28;19926;-82
2023/04/19 04:50:31;;;;;;;;;;;;;;;6.55;53.99;102672.00;10522636;28;19920;-81
2023/04/19 04:55:33;;;;;;;;;;;;;;;6.57;53.52;102669.91;10481281;28;20303;-80
2023/04/19 05:00:35;;;;;;;;;;;;;;;6.95;52.28;102675.69;10495595;28;19927;-79
2023/04/19 05:05:41;;;;;;;;;;;;;;;6.30;53.85;102685.34;10510402;28;19920;-82
2023/04/19 05:10:44;;;;;;;;;;;;;;;6.90;52.53;102689.09;10527092;28;19920;-79
2023/04/19 05:15:47;;;;;;;;;;;;;;;6.95;52.96;102686.63;10473630;28;19925;-80
2023/04/19 05:20:58;;;;;;;;;;;;;;;7.43;51.30;102683.69;10506671;28;20286;-77
2023/04/19 05:26:05;;;;;;;;;;;;;;;7.60;50.23;102692.31;10501185;28;20383;-81
2023/04/19 05:31:07;;;;;;;;;;;;;;;8.11;49.50;102706.13;10523021;28;19923;-79
2023/04/19 05:36:16;;;;;;;;;;;;;;;7.79;49.80;102704.28;10494613;28;19966;-79
2023/04/19 05:41:20;;;;;;;;;;;;;;;7.41;50.20;102704.94;10509482;28;19920;-78
2023/04/19 05:46:22;;;;;;;;;;;;;;;7.34;50.33;102714.19;10515489;28;20362;-79
2023/04/19 05:51:24;;;;;;;;;;;;;;;7.77;49.43;102703.66;10514649;28;19927;-78
2023/04/19 05:56:33;;;;;;;;;;;;;;;7.85;48.71;102717.94;10485209;28;19920;-78
2023/04/19 06:01:35;;;;;;;;;;;;;;;8.14;47.63;102722.09;10489723;28;19928;-78
2023/04/19 06:06:38;;;;;;;;;;;;;;;8.76;46.63;102709.69;10473298;28;19931;-80
2023/04/19 06:11:40;;;;;;;;;;;;;;;9.04;46.54;102708.50;10514686;28;19923;-80
2023/04/19 06:16:44;;;;;;;;;;;;;;;8.51;47.01;102721.63;10509057;28;19920;-79
2023/04/19 06:21:46;;;;;;;;;;;;;;;9.14;45.47;102722.53;10480503;28;20388;-79
2023/04/19 06:26:48;;;;;;;;;;;;;;;10.08;43.49;102737.16;10527205;23;19931;-86
2023/04/19 06:31:50;;;;;;;;;;;;;;;10.04;42.52;102724.94;10489116;28;19920;-86
2023/04/19 06:36:52;;;;;;;;;;;;;;;9.60;43.45;102726.84;10498257;28;19924;-87
2023/04/19 06:41:54;;;;;;;;;;;;;;;9.57;43.83;102727.28;10529098;28;19925;-86
2023/04/19 06:46:57;;;;;;;;;;;;;;;9.73;42.72;102725.88;10490418;28;19927;-86
2023/04/19 06:51:59;;;;;;;;;;;;;;;10.47;41.81;102720.28;10493293;28;19920;-85
2023/04/19 06:57:01;;;;;;;;;;;;;;;11.03;40.83;102721.84;10499751;28;19920;-86
2023/04/19 07:02:03;;;;;;;;;;;;;;;11.17;40.02;102717.84;10528887;28;19920;-84
2023/04/19 07:07:05;;;;;;;;;;;;;;;11.39;39.33;102720.03;10461252;28;19920;-84
2023/04/19 07:12:07;;;;;;;;;;;;;;;11.88;38.41;102726.22;10489302;28;19943;-84
2023/04/19 07:17:09;;;;;;;;;;;;;;;11.81;38.91;102717.28;10488177;28;19925;-84
2023/04/19 07:22:11;;;;;;;;;;;;;;;12.07;38.33;102730.53;10488173;28;20326;-84
2023/04/19 07:27:13;;;;;;;;;;;;;;;11.71;38.80;102729.66;10488311;28;19924;-84
2023/04/19 07:32:15;;;;;;;;;;;;;;;11.65;39.13;102711.38;10488718;28;19921;-84
2023/04/19 07:37:17;;;;;;;;;;;;;;;11.93;39.14;102720.84;10487901;28;19921;-85
2023/04/19 07:42:19;;;;;;;;;;;;;;;12.54;38.45;102720.28;10486690;28;19920;-85
2023/04/19 07:47:21;;;;;;;;;;;;;;;12.41;37.80;102727.97;10454094;28;19921;-85
2023/04/19 07:52:23;;;;;;;;;;;;;;;13.03;36.99;102723.47;10502932;28;19931;-85
2023/04/19 07:57:25;;;;;;;;;;;;;;;12.61;36.67;102725.66;10527637;28;19927;-84
2023/04/19 08:02:27;;;;;;;;;;;;;;;12.86;35.93;102734.44;10508378;28;20390;-84
2023/04/19 08:07:29;;;;;;;;;;;;;;;11.66;37.99;102737.78;10516134;28;19920;-85
2023/04/19 08:12:31;;;;;;;;;;;;;;;12.12;37.92;102736.16;10524881;28;19921;-85
2023/04/19 08:17:33;;;;;;;;;;;;;;;12.70;36.22;102732.47;10491243;28;19924;-85
2023/04/19 08:22:35;;;;;;;;;;;;;;;13.14;34.71;102724.47;10510761;28;19927;-85
2023/04/19 08:27:37;;;;;;;;;;;;;;;13.37;34.08;102716.13;10527276;28;19928;-84
2023/04/19 08:32:39;;;;;;;;;;;;;;;12.74;35.12;102725.38;10528656;28;19942;-84
2023/04/19 08:37:41;;;;;;;;;;;;;;;12.25;34.92;102719.38;10524505;28;19920;-89
2023/04/19 08:42:43;;;;;;;;;;;;;;;12.11;34.87;102717.97;10528415;28;19924;-86
2023/04/19 08:47:45;;;;;;;;;;;;;;;12.11;35.56;102717.97;10510696;28;19927;-88
2023/04/19 08:52:47;;;;;;;;;;;;;;;12.31;35.60;102728.59;10500514;28;19926;-88
2023/04/19 08:57:49;;;;;;;;;;;;;;;12.63;33.46;102712.47;10490350;28;19920;-83
2023/04/19 09:03:16;;;;;;;;;;;;;;;12.05;34.20;102713.44;10533133;28;19920;-91
2023/04/19 09:08:26;;;;;;;;;;;;;;;12.19;34.65;102708.50;10538502;28;19920;-94
2023/04/19 09:13:28;;;;;;;;;;;;;;;12.05;34.96;102708.75;10502364;28;20394;-88
2023/04/19 09:18:30;;;;;;;;;;;;;;;11.39;35.95;102720.88;10494833;28;19927;-89
2023/04/19 09:23:58;;;;;;;;;;;;;;;10.68;37.34;102712.63;10507602;28;19920;-93
2023/04/19 09:29:04;;;;;;;;;;;;;;;10.04;37.77;102724.94;10443578;28;19927;-95
2023/04/19 09:34:13;;;;;;;;;;;;;;;9.59;38.37;102719.69;10418009;28;19921;-91
2023/04/19 09:39:30;;;;;;;;;;;;;;;9.36;38.98;102706.56;10456718;28;19920;-88
2023/04/19 09:44:34;;;;;;;;;;;;;;;9.28;38.64;102713.16;10474891;28;19925;-88
2023/04/19 09:49:36;;;;;;;;;;;;;;;9.18;38.98;102706.47;10492142;28;19943;-89
2023/04/19 09:54:38;;;;;;;;;;;;;;;9.24;38.49;102705.63;10488976;28;19920;-88
2023/04/19 09:59:40;;;;;;;;;;;;;;;9.28;38.10;102701.38;10457865;28;19921;-90
2023/04/19 10:04:42;;;;;;;;;;;;;;;9.27;39.81;102708.75;10474315;28;19920;-90
2023/04/19 10:09:45;;;;;;;;;;;;;;;9.44;38.58;102705.47;10475235;28;19920;-90
2023/04/19 10:14:47;;;;;;;;;;;;;;;9.43;39.51;102709.25;10477011;28;19920;-92
2023/04/19 10:20:05;;;;;;;;;;;;;;;9.28;39.25;102712.31;10475400;28;19971;-92
2023/04/19 10:25:09;;;;;;;;;;;;;;;9.33;38.75;102696.03;10474439;28;20310;-91
2023/04/19 10:30:21;;;;;;;;;;;;;;;9.33;38.49;102685.94;10460464;28;19946;-91
2023/04/19 10:35:25;;;;;;;;;;;;;;;9.35;38.70;102682.97;10458824;28;19924;-91
2023/04/19 10:40:46;;;;;;;;;;;;;;;9.28;38.51;102687.66;10466645;28;19928;-90
2023/04/19 10:45:49;;;;;;;;;;;;;;;9.41;38.63;102678.50;10491434;28;19927;-90
2023/04/19 10:50:57;;;;;;;;;;;;;;;9.49;38.58;102678.22;10458374;28;19927;-91
2023/04/19 10:55:59;;;;;;;;;;;;;;;9.63;37.79;102688.84;10496814;28;19920;-90
2023/04/19 11:01:20;;;;;;;;;;;;;;;9.69;37.29;102670.66;10478996;28;20423;-90
2023/04/19 11:06:25;;;;;;;;;;;;;;;9.65;37.29;102685.88;10490969;28;19921;-89
2023/04/19 11:11:27;;;;;;;;;;;;;;;9.68;36.87;102671.72;10471848;28;19921;-89
2023/04/19 11:16:29;;;;;;;;;;;;;;;9.76;37.44;102674.19;10473216;28;20015;-89
2023/04/19 11:21:32;;;;;;;;;;;;;;;9.82;37.25;102675.16;10497979;28;19915;-91
2023/04/19 11:26:41;;;;;;;;;;;;;;;9.82;37.46;102661.47;10522297;28;19956;-89
2023/04/19 11:31:43;;;;;;;;;;;;;;;9.89;36.50;102684.16;10472778;28;20397;-90
2023/04/19 11:36:48;;;;;;;;;;;;;;;9.81;37.14;102677.06;10496716;28;19927;-89
2023/04/19 11:41:50;;;;;;;;;;;;;;;9.82;36.90;102669.69;10529836;28;19927;-89
2023/04/19 11:47:02;;;;;;;;;;;;;;;9.86;37.31;102663.50;10530146;28;20416;-90
2023/04/19 11:52:04;;;;;;;;;;;;;;;9.96;37.68;102666.59;10512384;28;20393;-89
2023/04/19 11:57:07;;;;;;;;;;;;;;;10.10;37.33;102652.72;10489465;28;20047;-88
2023/04/19 12:02:09;;;;;;;;;;;;;;;10.16;37.18;102652.63;10496580;28;19927;-93
2023/04/19 12:07:11;;;;;;;;;;;;;;;10.20;36.62;102647.53;10497025;28;19963;-92
2023/04/19 12:12:30;;;;;;;;;;;;;;;10.17;35.28;102658.97;10514563;28;19931;-91
2023/04/19 12:17:31;;;;;;;;;;;;;;;10.11;35.06;102651.66;10498809;28;19943;-91
2023/04/19 12:22:33;;;;;;;;;;;;;;;10.19;35.03;102632.13;10514177;28;19921;-92
2023/04/19 12:27:35;;;;;;;;;;;;;;;10.07;34.69;102642.22;10496942;28;19920;-93
2023/04/19 12:32:37;;;;;;;;;;;;;;;10.01;34.25;102635.72;10500201;28;19920;-91
2023/04/19 12:37:39;;;;;;;;;;;;;;;10.01;35.21;102640.38;10508523;28;19921;-93
2023/04/19 12:42:41;;;;;;;;;;;;;;;9.93;34.76;102634.13;10489280;28;19921;-92
2023/04/19 12:47:43;;;;;;;;;;;;;;;9.97;34.24;102635.34;10484151;28;20094;-92
2023/04/19 12:52:45;;;;;;;;;;;;;;;10.00;35.08;102636.78;10465584;28;19927;-91
2023/04/19 12:57:47;;;;;;;;;;;;;;;9.98;34.89;102631.53;10479423;28;20436;-93
2023/04/19 13:02:49;;;;;;;;;;;;;;;10.02;34.87;102620.09;10463217;28;19921;-91
2023/04/19 13:07:51;;;;;;;;;;;;;;;10.13;34.03;102627.56;10463726;28;19920;-92
2023/04/19 13:12:53;;;;;;;;;;;;;;;10.18;34.55;102614.84;10462687;28;19920;-92
2023/04/19 13:17:55;;;;;;;;;;;;;;;10.14;34.88;102623.75;10491479;28;19927;-90
2023/04/19 13:22:58;;;;;;;;;;;;;;;10.11;34.45;102616.00;10477817;28;19920;-90
2023/04/19 13:28:00;;;;;;;;;;;;;;;10.15;35.25;102612.56;10495145;28;20347;-89
2023/04/19 13:33:01;;;;;;;;;;;;;;;10.22;35.61;102615.25;10476913;28;19956;-90
2023/04/19 13:38:03;;;;;;;;;;;;;;;10.18;35.06;102620.31;10511074;28;19927;-90
2023/04/19 13:43:05;;;;;;;;;;;;;;;10.24;35.65;102604.91;10484480;28;19975;-89
2023/04/19 13:48:07;;;;;;;;;;;;;;;10.35;35.66;102608.75;10514068;28;19920;-90
2023/04/19 13:53:09;;;;;;;;;;;;;;;10.39;34.81;102601.72;10520389;28;19920;-88
2023/04/19 13:58:11;;;;;;;;;;;;;;;10.39;34.83;102593.50;10517042;28;19920;-91
2023/04/19 14:03:13;;;;;;;;;;;;;;;10.42;34.75;102602.13;10500894;28;19943;-90
2023/04/19 14:08:15;;;;;;;;;;;;;;;10.48;35.08;102597.59;10503032;28;19935;-91
2023/04/19 14:13:17;;;;;;;;;;;;;;;10.52;35.58;102596.88;10535518;28;20455;-91
2023/04/19 14:18:19;;;;;;;;;;;;;;;10.50;34.89;102582.56;10529611;28;19920;-92
2023/04/19 14:23:21;;;;;;;;;;;;;;;10.51;34.81;102592.47;10519043;28;20297;-91
2023/04/19 14:28:23;;;;;;;;;;;;;;;10.46;34.87;102597.84;10524406;28;19920;-91
2023/04/19 14:33:25;;;;;;;;;;;;;;;10.52;34.81;102591.41;10512264;28;19924;-90
2023/04/19 14:38:27;;;;;;;;;;;;;;;10.54;35.42;102591.16;10488274;28;20355;-89
2023/04/19 14:43:29;;;;;;;;;;;;;;;10.57;35.27;102588.78;10506623;28;19927;-85
2023/04/19 14:48:31;;;;;;;;;;;;;;;10.64;34.60;102588.72;10512410;28;19927;-84
2023/04/19 14:53:33;;;;;;;;;;;;;;;10.63;34.48;102591.69;10495674;28;19947;-87
2023/04/19 14:58:35;;;;;;;;;;;;;;;10.57;34.63;102588.78;10510579;28;20430;-87
2023/04/19 15:03:37;;;;;;;;;;;;;;;10.53;34.30;102576.59;10494419;28;19920;-87
2023/04/19 15:08:41;;;;;;;;;;;;;;;10.51;34.84;102575.16;10510854;28;19920;-87
2023/04/19 15:13:43;;;;;;;;;;;;;;;10.48;33.66;102579.22;10529446;28;19920;-86
2023/04/19 15:18:56;;;;;;;;;;;;;;;10.48;34.23;102568.25;10642040;27;19934;-80
2023/04/19 15:24:00;;;;;;;;;;;;;;;10.46;34.60;102564.06;10646530;28;19924;-78
2023/04/19 15:29:02;;;;;;;;;;;;;;;10.45;34.81;102571.47;10630025;28;20036;-78
2023/04/19 15:34:04;;;;;;;;;;;;;;;10.48;34.32;102561.91;10617124;28;19924;-80
2023/04/19 15:39:06;;;;;;;;;;;;;;;10.51;34.60;102570.50;10545675;28;20027;-78
2023/04/19 15:44:08;;;;;;;;;;;;;;;10.49;34.17;102571.81;10563215;28;19950;-78
2023/04/19 15:49:10;;;;;;;;;;;;;;;10.42;34.06;102554.63;10572610;28;19923;-79
2023/04/19 15:54:13;;;;;;;;;;;;;;;10.37;34.04;102551.72;10606397;28;20431;-79
2023/04/19 15:59:15;;;;;;;;;;;;;;;10.33;34.75;102548.63;10586014;28;19939;-79
2023/04/19 16:04:17;;;;;;;;;;;;;;;10.28;34.34;102545.75;10569694;28;19920;-78
2023/04/19 16:09:21;;;;;;;;;;;;;;;10.26;33.53;102551.47;10532716;28;19954;-79
2023/04/19 16:14:23;;;;;;;;;;;;;;;10.21;34.75;102547.72;10567588;28;19924;-80
2023/04/19 16:19:25;;;;;;;;;;;;;;;10.15;35.60;102540.41;10562978;28;19955;-80
2023/04/19 16:24:27;;;;;;;;;;;;;;;10.15;35.90;102543.13;10613459;28;19930;-80
2023/04/19 16:29:30;;;;;;;;;;;;;;;10.12;35.26;102543.59;10603298;28;19938;-78
2023/04/19 16:34:31;;;;;;;;;;;;;;;10.11;35.46;102542.78;10597014;28;19924;-78
2023/04/19 16:39:34;;;;;;;;;;;;;;;10.04;36.05;102539.25;10550696;28;19930;-80
2023/04/19 16:44:36;;;;;;;;;;;;;;;9.91;35.99;102537.53;10556278;28;19924;-79
2023/04/19 16:49:38;;;;;;;;;;;;;;;9.89;35.99;102542.44;10568831;28;20315;-80
2023/04/19 16:54:40;;;;;;;;;;;;;;;9.81;35.50;102541.88;10560278;28;19924;-79
2023/04/19 16:59:42;;;;;;;;;;;;;;;9.75;35.92;102538.16;10523235;28;19920;-81
2023/04/19 17:04:44;;;;;;;;;;;;;;;9.71;35.79;102541.56;10563098;28;20323;-80
2023/04/19 17:09:46;;;;;;;;;;;;;;;9.62;36.79;102543.81;10610455;28;19924;-80
2023/04/19 17:14:48;;;;;;;;;;;;;;;9.53;36.60;102565.16;10589441;28;20030;-79
2023/04/19 17:19:50;;;;;;;;;;;;;;;9.43;37.18;102545.69;10545955;28;19979;-80
2023/04/19 17:24:54;;;;;;;;;;;;;;;9.46;37.63;102549.88;10599057;28;20323;-84
2023/04/19 17:29:56;;;;;;;;;;;;;;;9.35;36.99;102565.16;10535650;28;20382;-79
2023/04/19 17:34:58;;;;;;;;;;;;;;;9.24;37.30;102564.00;10534244;28;19924;-80
2023/04/19 17:40:00;;;;;;;;;;;;;;;9.20;38.37;102551.84;10500749;28;19934;-79
2023/04/19 17:45:03;;;;;;;;;;;;;;;9.23;38.16;102556.03;10542850;28;19924;-78
2023/04/19 17:50:09;;;;;;;;;;;;;;;9.18;37.83;102558.56;10573793;28;19920;-77
2023/04/19 17:55:11;;;;;;;;;;;;;;;9.04;37.75;102555.13;10565205;28;20388;-79
2023/04/19 18:00:13;;;;;;;;;;;;;;;9.00;39.58;102559.38;10575486;28;19924;-80
2023/04/19 18:05:15;;;;;;;;;;;;;;;8.91;38.90;102555.25;10571867;28;19924;-80
2023/04/19 18:10:17;;;;;;;;;;;;;;;8.75;39.23;102554.72;10510627;28;19981;-80
2023/04/19 18:15:19;;;;;;;;;;;;;;;8.66;39.01;102556.03;10564276;28;19935;-79
2023/04/19 18:20:21;;;;;;;;;;;;;;;8.49;39.17;102548.59;10527061;28;19931;-79
2023/04/19 18:25:23;;;;;;;;;;;;;;;8.35;39.88;102559.66;10549858;28;19964;-80
2023/04/19 18:30:25;;;;;;;;;;;;;;;8.29;39.90;102543.22;10510407;28;19930;-80
2023/04/19 18:35:27;;;;;;;;;;;;;;;8.24;40.19;102546.63;10568569;28;19928;-79
2023/04/19 18:40:29;;;;;;;;;;;;;;;8.16;39.10;102539.53;10558646;28;19923;-80
2023/04/19 18:45:30;;;;;;;;;;;;;;;8.10;38.87;102550.47;10555011;28;19924;-77
2023/04/19 18:50:35;;;;;;;;;;;;;;;8.26;38.81;102538.19;10569536;28;19930;-80
2023/04/19 18:55:37;;;;;;;;;;;;;;;8.22;36.99;102547.91;10559146;28;20306;-82
2023/04/19 19:00:39;;;;;;;;;;;;;;;8.20;36.88;102544.56;10547530;28;19931;-79
2023/04/19 19:05:41;;;;;;;;;;;;;;;8.06;36.65;102547.34;10497547;28;19924;-79
2023/04/19 19:10:44;;;;;;;;;;;;;;;7.99;37.65;102540.25;10526417;28;19925;-80
2023/04/19 19:15:49;;;;;;;;;;;;;;;8.01;38.38;102546.31;10513109;28;20007;-79
2023/04/19 19:20:59;;;;;;;;;;;;;;;7.92;37.79;102542.97;10568654;28;19924;-78
2023/04/19 19:26:01;;;;;;;;;;;;;;;7.90;37.00;102545.09;10550090;28;19931;-79
2023/04/19 19:31:03;;;;;;;;;;;;;;;7.91;37.09;102530.38;10551883;28;19955;-80
2023/04/19 19:36:05;;;;;;;;;;;;;;;7.88;37.08;102536.28;10552158;28;19928;-80
2023/04/19 19:41:07;;;;;;;;;;;;;;;7.87;36.63;102534.59;10528659;28;20200;-79
2023/04/19 19:46:09;;;;;;;;;;;;;;;7.71;36.43;102535.09;10509910;28;19948;-79
2023/04/19 19:51:12;;;;;;;;;;;;;;;7.67;36.35;102542.03;10549832;28;19920;-79
2023/04/19 19:56:17;;;;;;;;;;;;;;;7.59;35.88;102542.25;10541834;28;19931;-80
2023/04/19 20:01:22;;;;;;;;;;;;;;;7.63;34.98;102543.50;10549135;28;19924;-79
2023/04/19 20:06:27;;;;;;;;;;;;;;;7.65;35.41;102542.25;10556066;28;20387;-80
2023/04/19 20:11:28;;;;;;;;;;;;;;;7.64;35.06;102529.66;10532380;28;20415;-80
2023/04/19 20:16:31;;;;;;;;;;;;;;;7.60;34.54;102533.84;10539488;28;19929;-76
2023/04/19 20:21:33;;;;;;;;;;;;;;;7.66;34.49;102529.44;10520584;28;19972;-78
2023/04/19 20:26:34;;;;;;;;;;;;;;;7.60;34.73;102538.47;10527958;28;19946;-78
2023/04/19 20:31:36;;;;;;;;;;;;;;;7.65;34.77;102530.50;10535308;28;19931;-80
2023/04/19 20:36:39;;;;;;;;;;;;;;;7.58;34.42;102530.50;10571164;28;19958;-78
2023/04/19 20:41:46;;;;;;;;;;;;;;;7.54;34.11;102538.28;10554921;28;19928;-81
2023/04/19 20:46:51;;;;;;;;;;;;;;;7.51;34.93;102536.00;10514507;28;19969;-80
2023/04/19 20:51:53;;;;;;;;;;;;;;;7.59;34.62;102536.81;10563134;28;20015;-82
2023/04/19 20:56:58;;;;;;;;;;;;;;;7.63;34.19;102530.69;10530169;28;19967;-76
2023/04/19 21:02:01;;;;;;;;;;;;;;;7.58;34.71;102527.75;10537469;28;20351;-77
2023/04/19 21:07:03;;;;;;;;;;;;;;;7.66;35.08;102532.16;10531980;28;20198;-77
2023/04/19 21:12:05;;;;;;;;;;;;;;;7.72;35.63;102532.13;10534476;28;19924;-80
2023/04/19 21:17:07;;;;;;;;;;;;;;;7.90;35.87;102527.88;10557197;28;19928;-79
2023/04/19 21:22:09;;;;;;;;;;;;;;;8.09;35.42;102526.91;10549379;28;19954;-80
2023/04/19 21:27:11;;;;;;;;;;;;;;;8.25;35.73;102536.50;10527358;28;19930;-79
2023/04/19 21:32:13;;;;;;;;;;;;;;;8.28;35.01;102528.69;10563572;28;19924;-78
2023/04/19 21:37:16;;;;;;;;;;;;;;;8.18;35.24;102535.72;10570907;28;20326;-78
2023/04/19 21:42:18;;;;;;;;;;;;;;;8.14;35.58;102536.13;10570900;28;19924;-77
2023/04/19 21:47:20;;;;;;;;;;;;;;;8.13;35.55;102534.47;10558613;28;20395;-78
2023/04/19 21:52:22;;;;;;;;;;;;;;;8.03;36.14;102534.13;10557678;28;19919;-78
2023/04/19 21:57:25;;;;;;;;;;;;;;;7.92;35.56;102518.38;10538375;28;19924;-78
2023/04/19 22:02:27;;;;;;;;;;;;;;;7.75;35.63;102519.94;10564679;28;19924;-78
2023/04/19 22:07:30;;;;;;;;;;;;;;;7.71;36.47;102516.81;10554831;28;20431;-78
2023/04/19 22:12:33;;;;;;;;;;;;;;;7.74;36.27;102515.53;10530048;28;19924;-78
2023/04/19 22:17:39;;;;;;;;;;;;;;;7.47;36.22;102512.91;10543739;28;19924;-77
2023/04/19 22:22:41;;;;;;;;;;;;;;;7.31;35.88;102510.63;10532767;28;19929;-77
2023/04/19 22:27:44;;;;;;;;;;;;;;;7.12;36.30;102509.63;10540786;28;20379;-78
2023/04/19 22:32:46;;;;;;;;;;;;;;;7.08;36.14;102508.34;10566774;28;19931;-77
2023/04/19 22:37:48;;;;;;;;;;;;;;;6.98;35.97;102504.38;10551940;28;20307;-77
2023/04/19 22:42:50;;;;;;;;;;;;;;;6.90;35.64;102505.41;10548351;28;19924;-77
2023/04/19 22:47:52;;;;;;;;;;;;;;;6.81;35.75;102504.81;10588714;28;19924;-78
2023/04/19 22:52:54;;;;;;;;;;;;;;;6.84;35.17;102501.66;10579920;28;19924;-77
2023/04/19 22:57:56;;;;;;;;;;;;;;;6.86;35.23;102501.44;10562432;28;19931;-76
2023/04/19 23:03:01;;;;;;;;;;;;;;;6.89;34.79;102495.56;10510712;28;20312;-77
2023/04/19 23:08:03;;;;;;;;;;;;;;;6.85;34.81;102486.97;10565726;28;19924;-77
2023/04/19 23:13:05;;;;;;;;;;;;;;;6.88;34.74;102491.16;10568220;28;19924;-77
2023/04/19 23:18:08;;;;;;;;;;;;;;;7.04;34.78;102479.81;10578576;28;19924;-77
2023/04/19 23:23:10;;;;;;;;;;;;;;;6.99;34.74;102478.75;10594230;28;19924;-77
2023/04/19 23:28:12;;;;;;;;;;;;;;;7.06;34.70;102476.84;10612999;28;19970;-77
2023/04/19 23:33:14;;;;;;;;;;;;;;;7.07;35.28;102484.00;10552644;28;19929;-77
2023/04/19 23:38:16;;;;;;;;;;;;;;;7.10;35.22;102484.41;10574393;28;19924;-78
2023/04/19 23:43:18;;;;;;;;;;;;;;;7.08;35.96;102477.47;10581230;28;19924;-79
2023/04/19 23:48:20;;;;;;;;;;;;;;;7.16;36.02;102469.06;10543084;28;19934;-78
2023/04/19 23:53:22;;;;;;;;;;;;;;;7.20;36.52;102467.59;10567146;28;19927;-77
2023/04/19 23:58:24;;;;;;;;;;;;;;;7.36;36.37;102460.81;10567590;28;19924;-78
